Share

Ahoskie, NC

Tri County (KASJ) Elev 69 ft | 36.30 °N, 77.17 °W | Change Station

Current weather conditions updated 18 minutes ago

Clear
klor
53 °f
Feels Like 53 °f
N
10
vint baytevdik vint from tsofn[ts]
zunoyfgang 6:31 AM
shkiye 7:43 PM
Moon Waning Gibbous

Today is forecast to be Warmer than yesterday.

druk 30.56 in
zeevdikeyt 10.0 mayln
Clouds klor
toypunkt 38 °f
faykhtkeyt 57%
Rainfall 0.00 in
Snow Depth Not available.
UV 9 out of 16
Pollen 10.00 out of 12
Air Quality Not available.
Flu Activity Local Activity
METAR KASJ 171535Z AUTO 36009KT 10SM CLR 12/04 A3056 RMK AO2 T01190036

More Conditions Fewer Conditions

druk 30.56 in
zeevdikeyt 10.0 mayln
Clouds klor
toypunkt 38 °f
faykhtkeyt 57%
Rainfall 0.00 in
Snow Depth Not available.
UV 9 out of 16
Pollen 10.00 out of 12
Air Quality Not available.
Flu Activity Local Activity
METAR KASJ 171535Z AUTO 36009KT 10SM CLR 12/04 A3056 RMK AO2 T01190036

More Conditions Fewer Conditions

10-Day Forecast

Almanac

Astronomy

Apr. 17, 2014 Rise Set
Actual Time 6:31 AM EDT 7:43 PM EDT
Civil Twilight 6:05 AM EDT 8:10 PM EDT
Nautical Twilight 5:33 AM EDT 8:42 PM EDT
Astronomical Twilight 5:00 AM EDT 9:15 PM EDT
Moon 10:23 PM EDT 8:05 AM EDT
Length Of Visible Light 14h 05m
Length of Day
13h 11m
Tomorrow will be 2m 10s longer.
Waning Gibbous, 94% of the Moon is Illuminated
haynt
Waning Gibbous
Apr 22
Last Quarter
Apr 29
New
May 6
First Quarter
May 14
Full

Today's Extremes

State Highs State Lows

Community

  • New Day
    New Day
  • Lake Michigan Sunrise
    Lake Michigan Sunrise
  • sunset from izmir, narlıdere
    sunset from izmir, narlıdere
  • oregon cherry
    oregon cherry
  • Sunset over the Bay
    Sunset over the Bay

WunderPhotos

Upload Photos

1,702,037 photos uploaded!

Nearby

Snow Depth

Station Depth Elevation
No new snow has been reported.

Coastal Water Temperatures

plats temperatur
Oregon Inlet Marina, NC 48.9 °f
Duck Pier, NC 48.9 °f
Hatteras, NC 54.0 °f
Money Point, VA 55.0 °f
Sewells Point, VA 55.9 °f
Chesapeake Bay Bridge Tunnel, VA 50.0 °f

Earthquake Activity

City Distance Mag. Time & Date
No recent earthquake activity has been reported nearby.
Minimum magnitude displayed is 2.5.

Nearby Weather Stations

Station Location Temp toypunkt faykhtkeyt vint Precip. Elev dertsaytikt Type
Nowell Farm Road, Colerain, NC 54.5 °f 41 °f 60% mztsmz  bay  9.2 mph 0.00 in / hr 79 ft 11:53 AM EDT Rapid Fire
Ashley's Grove, Conway, NC 55.3 °f 43 °f 63% tstsmz  bay  9.0 mph 0.00 in / hr 138 ft 11:53 AM EDT Rapid Fire
Conway - 35S, Conway, NC 55.9 °f 40 °f 56% ddmz  bay  3.0 mph 0.00 in / hr 112 ft 11:53 AM EDT Normal
RAWS GREENS CROSS NC, Windsor, NC 58 °f 40 °f 52% tsofn[ts]  bay  4 mph 0.00 in / hr 41 ft 11:17 AM EDT MADIS

Show More Stations Show Fewer Stations

What do you think?

We're not finished. Please let us know what you like, what you don't like, and what you are still missing.